Time;durP1;ratioP1;P1;durP2;ratioP2;P2;SDS_P1;SDS_P2;PMS_P1;PMS_P2;Temp;Humidity;BMP_temperature;BMP_pressure;BME280_temperature;BME280_humidity;BME280_pressure;Samples;Min_cycle;Max_cycle;Signal;HPM_P1;HPM_P2
2023/09/29 00:01:16;;;;;;;22.52;6.72;;;;;;;15.83;100.00;101395.56;6215305;23;20015;-69
2023/09/29 00:03:41;;;;;;;28.48;6.72;;;;;;;15.85;100.00;101398.97;6215765;23;20015;-69
2023/09/29 00:06:07;;;;;;;22.15;7.57;;;;;;;15.85;100.00;101394.41;6242112;23;20019;-69
2023/09/29 00:08:33;;;;;;;23.73;7.28;;;;;;;15.85;100.00;101393.56;6242774;23;20015;-69
2023/09/29 00:10:58;;;;;;;20.55;6.47;;;;;;;15.86;100.00;101396.13;6242378;23;20008;-70
2023/09/29 00:13:23;;;;;;;21.67;6.40;;;;;;;15.86;100.00;101398.00;6244084;23;20347;-72
2023/09/29 00:15:49;;;;;;;21.25;7.13;;;;;;;15.88;100.00;101393.28;6243257;23;20000;-72
2023/09/29 00:18:15;;;;;;;21.50;6.70;;;;;;;15.87;100.00;101392.44;6242608;23;20342;-73
2023/09/29 00:20:40;;;;;;;21.05;6.88;;;;;;;15.87;100.00;101387.00;6243066;23;20004;-72
2023/09/29 00:23:06;;;;;;;19.88;6.82;;;;;;;15.89;100.00;101390.44;6216045;23;20010;-72
2023/09/29 00:25:32;;;;;;;17.95;6.57;;;;;;;15.91;100.00;101393.00;6216385;23;20000;-72
2023/09/29 00:27:57;;;;;;;20.00;6.82;;;;;;;15.94;100.00;101391.88;6215633;23;20044;-72
2023/09/29 00:30:22;;;;;;;19.90;6.47;;;;;;;15.94;100.00;101391.88;6243168;23;20391;-72
2023/09/29 00:32:53;;;;;;;18.75;6.28;;;;;;;15.95;100.00;101383.63;6243288;23;20014;-72
2023/09/29 00:35:29;;;;;;;19.02;6.43;;;;;;;15.97;100.00;101381.63;6243031;23;20394;-72
2023/09/29 00:37:55;;;;;;;18.27;6.20;;;;;;;15.98;100.00;101385.22;6242884;23;20004;-72
2023/09/29 00:40:22;;;;;;;21.52;6.72;;;;;;;15.99;100.00;101379.66;6215976;23;20004;-72
2023/09/29 00:42:48;;;;;;;22.90;5.63;;;;;;;15.98;100.00;101386.06;6216340;23;20012;-72
2023/09/29 00:45:22;;;;;;;19.00;6.47;;;;;;;16.00;100.00;101380.50;6243010;23;20008;-72
2023/09/29 00:47:49;;;;;;;18.73;6.57;;;;;;;16.01;100.00;101377.66;6242499;23;20323;-72
2023/09/29 00:50:15;;;;;;;21.05;6.97;;;;;;;16.02;100.00;101371.25;6242379;23;20000;-72
2023/09/29 00:52:42;;;;;;;18.45;6.18;;;;;;;16.03;100.00;101370.25;6215807;23;20078;-73
2023/09/29 00:55:15;;;;;;;21.35;5.65;;;;;;;16.05;100.00;101368.25;6243024;23;20026;-73
2023/09/29 00:57:43;;;;;;;19.65;6.43;;;;;;;16.06;100.00;101369.09;6243187;23;20067;-72
2023/09/29 01:00:53;;;;;;;21.42;5.72;;;;;;;16.06;100.00;101374.53;6242391;23;20008;-72
2023/09/29 01:03:04;;;;;;;19.65;6.15;;;;;;;16.06;100.00;101372.69;6231793;23;20450;-69
2023/09/29 01:05:32;;;;;;;21.58;5.60;;;;;;;16.07;100.00;101374.41;6215982;23;20057;-70
2023/09/29 01:07:58;;;;;;;16.77;5.30;;;;;;;16.10;100.00;101367.00;6215472;23;20016;-70
2023/09/29 01:10:24;;;;;;;24.92;6.05;;;;;;;16.10;100.00;101365.13;6242332;23;20027;-69
2023/09/29 01:12:49;;;;;;;13.95;5.10;;;;;;;16.10;100.00;101359.72;6242996;23;20000;-73
2023/09/29 01:15:19;;;;;;;18.70;6.18;;;;;;;16.10;100.00;101354.28;6242868;23;20000;-72
2023/09/29 01:17:44;;;;;;;14.90;5.05;;;;;;;16.11;100.00;101350.59;6242155;23;20004;-72
2023/09/29 01:20:17;;;;;;;18.35;5.80;;;;;;;16.10;100.00;101348.03;6242639;23;20076;-72
2023/09/29 01:22:45;;;;;;;21.85;6.00;;;;;;;16.10;100.00;101345.31;6242817;23;20004;-69
2023/09/29 01:25:11;;;;;;;18.95;6.07;;;;;;;16.10;100.00;101354.28;6214304;23;20012;-70
2023/09/29 01:27:36;;;;;;;15.88;5.20;;;;;;;16.11;100.00;101347.88;6214314;23;20546;-69
2023/09/29 01:30:03;;;;;;;14.65;5.13;;;;;;;16.12;100.00;101344.19;6240522;23;20347;-70
2023/09/29 01:32:28;;;;;;;21.45;5.85;;;;;;;16.12;100.00;101337.88;6241900;23;20110;-70
2023/09/29 01:34:54;;;;;;;16.98;5.13;;;;;;;16.15;100.00;101334.88;6241847;23;20154;-69
2023/09/29 01:37:21;;;;;;;17.52;4.93;;;;;;;16.13;100.00;101326.91;6242229;23;20000;-69
2023/09/29 01:39:47;;;;;;;15.77;5.45;;;;;;;16.15;100.00;101326.75;6215229;23;20460;-69
2023/09/29 01:42:12;;;;;;;16.85;5.40;;;;;;;16.15;100.00;101315.91;6242880;23;20003;-70
2023/09/29 01:44:38;;;;;;;18.02;5.35;;;;;;;16.13;100.00;101318.75;6242274;23;20379;-69
2023/09/29 01:47:03;;;;;;;16.60;5.13;;;;;;;16.16;100.00;101325.78;6240918;23;20035;-71
2023/09/29 01:49:30;;;;;;;19.55;5.47;;;;;;;16.15;100.00;101321.34;6242589;23;20024;-69
2023/09/29 01:51:55;;;;;;;16.85;5.18;;;;;;;16.13;100.00;101320.63;6214739;23;20000;-68
2023/09/29 01:54:20;;;;;;;15.60;5.10;;;;;;;16.15;100.00;101314.06;6242419;23;20057;-69
2023/09/29 01:56:46;;;;;;;17.67;5.03;;;;;;;16.16;100.00;101314.94;6241165;23;20330;-69
2023/09/29 01:59:12;;;;;;;17.15;5.15;;;;;;;16.18;100.00;101318.34;6242841;23;20481;-69
2023/09/29 02:01:38;;;;;;;15.63;5.18;;;;;;;16.17;100.00;101316.66;6242741;23;20035;-69
2023/09/29 02:04:04;;;;;;;14.95;5.03;;;;;;;16.18;100.00;101304.78;6242914;23;20003;-69
2023/09/29 02:06:33;;;;;;;13.90;4.55;;;;;;;16.18;100.00;101300.25;6214192;23;20119;-69
2023/09/29 02:08:58;;;;;;;13.57;4.80;;;;;;;16.19;100.00;101303.81;6242413;23;20011;-70
2023/09/29 02:11:23;;;;;;;14.60;4.72;;;;;;;16.19;100.00;101298.38;6242325;23;20071;-69
2023/09/29 02:13:49;;;;;;;15.40;4.70;;;;;;;16.19;100.00;101301.09;6242261;23;20031;-69
2023/09/29 02:16:17;;;;;;;14.85;4.68;;;;;;;16.20;100.00;101310.94;6241738;23;20453;-69
2023/09/29 02:18:42;;;;;;;14.95;4.93;;;;;;;16.19;100.00;101310.09;6241975;23;20000;-70
2023/09/29 02:21:09;;;;;;;19.25;5.30;;;;;;;16.20;100.00;101303.66;6242768;23;20081;-70
2023/09/29 02:23:35;;;;;;;15.95;4.45;;;;;;;16.20;100.00;101294.69;6242444;23;20012;-69
2023/09/29 02:26:01;;;;;;;13.65;4.43;;;;;;;16.20;100.00;101291.97;6243704;23;20004;-69
2023/09/29 02:28:32;;;;;;;14.05;4.72;;;;;;;16.21;100.00;101299.97;6243730;23;20058;-69
2023/09/29 02:30:58;;;;;;;14.68;4.47;;;;;;;16.21;100.00;101290.97;6217271;23;20422;-69
2023/09/29 02:33:25;;;;;;;15.63;4.80;;;;;;;16.21;100.00;101289.13;6244215;23;20102;-72
2023/09/29 02:35:50;;;;;;;14.15;4.38;;;;;;;16.23;100.00;101283.53;6217158;23;20382;-72
2023/09/29 02:38:16;;;;;;;14.05;4.28;;;;;;;16.23;100.00;101283.53;6243649;23;20004;-72
2023/09/29 02:40:42;;;;;;;11.85;4.00;;;;;;;16.23;100.00;101272.69;6244345;23;20004;-72
2023/09/29 02:43:07;;;;;;;15.88;4.72;;;;;;;16.24;100.00;101277.13;6244568;23;20004;-72
2023/09/29 02:45:35;;;;;;;12.52;3.85;;;;;;;16.25;100.00;101259.84;6244098;23;20083;-72
2023/09/29 02:48:01;;;;;;;12.48;3.97;;;;;;;16.24;100.00;101261.72;6243664;23;20012;-72
2023/09/29 02:50:27;;;;;;;13.98;4.30;;;;;;;16.27;100.00;101262.41;6244071;23;20024;-72
2023/09/29 02:52:52;;;;;;;13.07;4.10;;;;;;;16.26;100.00;101261.56;6244056;23;20488;-72
2023/09/29 02:55:17;;;;;;;15.57;4.28;;;;;;;16.26;100.00;101258.84;6244015;23;20035;-72
2023/09/29 02:57:43;;;;;;;13.63;4.30;;;;;;;16.28;100.00;101258.72;6243967;23;20008;-72
2023/09/29 03:00:19;;;;;;;12.95;4.10;;;;;;;16.27;100.00;101248.84;6216959;23;20015;-72
2023/09/29 03:02:45;;;;;;;13.48;4.20;;;;;;;16.27;100.00;101247.03;6244135;23;20016;-72
2023/09/29 03:05:14;;;;;;;12.43;4.15;;;;;;;16.28;100.00;101243.28;6243867;23;20482;-71
2023/09/29 03:07:41;;;;;;;12.35;3.83;;;;;;;16.29;100.00;101253.16;6243518;23;20012;-72
2023/09/29 03:10:06;;;;;;;14.18;4.15;;;;;;;16.29;100.00;101244.16;6243691;23;19996;-72
2023/09/29 03:12:32;;;;;;;11.73;4.25;;;;;;;16.29;100.00;101242.31;6216833;23;20004;-72
2023/09/29 03:14:57;;;;;;;15.38;4.63;;;;;;;16.30;100.00;101252.16;6243977;23;20118;-72
2023/09/29 03:17:22;;;;;;;14.82;4.18;;;;;;;16.30;100.00;101246.72;6216590;23;20004;-72
2023/09/29 03:19:49;;;;;;;15.07;3.97;;;;;;;16.32;100.00;101252.03;6243239;23;20441;-72
2023/09/29 03:22:14;;;;;;;16.85;4.20;;;;;;;16.32;100.00;101250.16;6243937;23;20039;-72
2023/09/29 03:24:40;;;;;;;14.43;4.10;;;;;;;16.33;100.00;101242.91;6216659;23;20000;-72
2023/09/29 03:27:05;;;;;;;13.95;4.07;;;;;;;16.33;100.00;101230.19;6243708;23;20004;-72
2023/09/29 03:29:31;;;;;;;10.45;3.70;;;;;;;16.33;100.00;101224.75;6243446;23;20007;-72
2023/09/29 03:31:56;;;;;;;15.85;4.40;;;;;;;16.34;100.00;101222.88;6243147;23;20003;-72
2023/09/29 03:34:23;;;;;;;12.05;3.92;;;;;;;16.34;100.00;101218.34;6243514;23;20028;-72
2023/09/29 03:36:50;;;;;;;15.88;4.35;;;;;;;16.34;100.00;101217.47;6216687;23;20004;-72
2023/09/29 03:39:17;;;;;;;12.40;4.13;;;;;;;16.34;100.00;101220.19;6243457;23;20030;-72
2023/09/29 03:41:43;;;;;;;13.77;4.22;;;;;;;16.35;100.00;101205.63;6242853;23;20386;-72
2023/09/29 03:44:08;;;;;;;10.18;3.85;;;;;;;16.35;100.00;101190.19;6243789;23;20007;-69
2023/09/29 03:46:33;;;;;;;9.90;3.63;;;;;;;16.36;100.00;101193.78;6216045;23;20065;-70
2023/09/29 03:48:59;;;;;;;14.52;4.85;;;;;;;16.35;100.00;101184.75;6243393;23;20004;-70
2023/09/29 03:51:25;;;;;;;15.25;4.40;;;;;;;16.35;100.00;101190.19;6243101;23;20023;-70
2023/09/29 03:53:54;;;;;;;11.88;3.80;;;;;;;16.36;100.00;101191.91;6243643;23;20334;-72
2023/09/29 03:56:23;;;;;;;15.43;4.88;;;;;;;16.36;100.00;101185.66;6243526;23;20463;-72
2023/09/29 03:58:49;;;;;;;17.02;4.38;;;;;;;16.35;100.00;101187.47;6243691;23;20008;-72
2023/09/29 04:01:15;;;;;;;14.10;4.15;;;;;;;16.36;100.00;101191.91;6243263;23;20607;-72
2023/09/29 04:03:41;;;;;;;13.05;4.28;;;;;;;16.36;100.00;101182.94;6243233;23;20000;-73
2023/09/29 04:06:08;;;;;;;11.95;4.25;;;;;;;16.37;100.00;101185.50;6243299;23;20069;-73
2023/09/29 04:08:34;;;;;;;14.02;4.75;;;;;;;16.37;100.00;101171.06;6216083;23;20065;-72
2023/09/29 04:10:59;;;;;;;11.38;3.97;;;;;;;16.37;100.00;101171.94;6243514;23;20074;-72
2023/09/29 04:13:25;;;;;;;10.73;3.83;;;;;;;16.38;100.00;101167.34;6243675;23;20066;-73
2023/09/29 04:15:51;;;;;;;13.48;3.92;;;;;;;16.39;100.00;101177.22;6243297;23;20011;-72
2023/09/29 04:18:16;;;;;;;16.30;4.25;;;;;;;16.40;100.00;101187.94;6215443;23;20410;-73
2023/09/29 04:20:42;;;;;;;13.32;4.20;;;;;;;16.41;100.00;101183.34;6243333;23;20007;-73
2023/09/29 04:23:07;;;;;;;15.57;4.43;;;;;;;16.41;100.00;101177.91;6243054;23;20011;-72
2023/09/29 04:25:32;;;;;;;11.43;4.18;;;;;;;16.42;100.00;101169.63;6243206;23;20004;-72
2023/09/29 04:27:58;;;;;;;13.00;3.65;;;;;;;16.43;100.00;101163.22;6243235;23;20032;-72
2023/09/29 04:30:24;;;;;;;14.90;4.13;;;;;;;16.43;100.00;101151.53;6243038;23;19996;-72
2023/09/29 04:32:52;;;;;;;12.55;3.97;;;;;;;16.43;100.00;101152.38;6242572;23;20424;-72
2023/09/29 04:35:17;;;;;;;13.45;4.47;;;;;;;16.45;100.00;101151.38;6215381;23;20066;-72
2023/09/29 04:37:43;;;;;;;16.17;4.57;;;;;;;16.45;100.00;101168.50;6242769;23;20004;-72
2023/09/29 04:40:08;;;;;;;13.55;4.10;;;;;;;16.48;100.00;101164.66;6242683;23;20008;-73
2023/09/29 04:42:34;;;;;;;13.40;4.15;;;;;;;16.48;100.00;101159.22;6241189;23;20390;-72
2023/09/29 04:44:59;;;;;;;14.20;4.25;;;;;;;16.50;100.00;101157.22;6240437;23;20004;-72
2023/09/29 04:47:25;;;;;;;13.48;4.28;;;;;;;16.51;100.00;101156.22;6242558;23;20023;-72
2023/09/29 04:49:50;;;;;;;10.32;3.90;;;;;;;16.53;100.00;101154.22;6242553;23;20050;-72
2023/09/29 04:52:16;;;;;;;11.00;4.32;;;;;;;16.54;100.00;101161.34;6242983;23;20062;-71
2023/09/29 04:54:43;;;;;;;14.35;4.22;;;;;;;16.54;100.00;101161.34;6242693;23;20107;-73
2023/09/29 04:57:09;;;;;;;13.32;4.25;;;;;;;16.55;100.00;101168.50;6243118;23;20004;-72
2023/09/29 04:59:34;;;;;;;12.02;3.97;;;;;;;16.56;100.00;101165.66;6241439;23;20319;-72
2023/09/29 05:01:59;;;;;;;9.68;3.45;;;;;;;16.56;100.00;101162.94;6242068;23;20040;-72
2023/09/29 05:04:25;;;;;;;16.38;3.97;;;;;;;16.58;100.00;101154.66;6213044;23;20015;-71
2023/09/29 05:06:51;;;;;;;10.50;3.60;;;;;;;16.59;100.00;101161.81;6212313;23;20057;-72
2023/09/29 05:09:17;;;;;;;9.77;3.60;;;;;;;16.60;100.00;101153.50;6242202;23;20000;-73
2023/09/29 05:11:42;;;;;;;12.27;3.60;;;;;;;16.61;100.00;101159.78;6242756;23;20007;-72
2023/09/29 05:14:07;;;;;;;14.50;4.10;;;;;;;16.64;100.00;101145.91;6216259;23;20084;-74
2023/09/29 05:16:33;;;;;;;12.25;4.05;;;;;;;16.63;100.00;101138.78;6241314;23;20000;-72
2023/09/29 05:18:59;;;;;;;12.77;3.75;;;;;;;16.65;100.00;101135.91;6242521;23;20008;-72
2023/09/29 05:21:24;;;;;;;11.02;3.58;;;;;;;16.66;100.00;101132.22;6242348;23;20004;-72
2023/09/29 05:23:49;;;;;;;13.60;3.95;;;;;;;16.67;100.00;101125.78;6239411;23;20007;-72
2023/09/29 05:26:15;;;;;;;11.82;4.20;;;;;;;16.68;100.00;101124.78;6213523;23;20138;-72
2023/09/29 05:28:40;;;;;;;14.15;4.40;;;;;;;16.68;100.00;101133.78;6211441;23;20031;-72
2023/09/29 05:31:05;;;;;;;13.23;4.28;;;;;;;16.69;100.00;101130.06;6213048;23;20004;-72
2023/09/29 05:33:31;;;;;;;14.02;4.32;;;;;;;16.70;100.00;101136.34;6211969;23;20004;-69
2023/09/29 05:35:58;;;;;;;9.95;3.92;;;;;;;16.71;100.00;101128.06;6211176;23;20012;-70
2023/09/29 05:38:28;;;;;;;11.63;4.03;;;;;;;16.70;100.00;101123.63;6240343;23;20004;-70
2023/09/29 05:40:56;;;;;;;11.55;4.47;;;;;;;16.71;100.00;101128.06;6241281;23;20009;-70
2023/09/29 05:43:21;;;;;;;10.57;3.67;;;;;;;16.72;100.00;101129.78;6213838;23;20008;-70
2023/09/29 05:45:47;;;;;;;14.85;4.35;;;;;;;16.73;100.00;101127.91;6213578;23;20066;-70
2023/09/29 05:48:13;;;;;;;10.23;3.75;;;;;;;16.73;100.00;101131.47;6240898;23;20042;-70
2023/09/29 05:50:38;;;;;;;10.52;3.70;;;;;;;16.76;100.00;101135.75;6240653;23;20000;-69
2023/09/29 05:53:04;;;;;;;14.40;4.13;;;;;;;16.77;100.00;101137.47;6240359;23;20295;-70
2023/09/29 05:55:30;;;;;;;12.95;4.05;;;;;;;16.77;100.00;101135.59;6217149;23;20338;-70
2023/09/29 05:57:55;;;;;;;10.90;4.00;;;;;;;16.78;100.00;101137.34;6244250;23;20295;-72
2023/09/29 06:00:21;;;;;;;10.25;4.03;;;;;;;16.79;100.00;101130.03;6243348;23;20135;-70
2023/09/29 06:02:46;;;;;;;8.45;3.42;;;;;;;16.82;100.00;101131.59;6243627;23;20010;-70
2023/09/29 06:05:13;;;;;;;13.55;3.90;;;;;;;16.82;100.00;101137.88;6242758;23;20012;-70
2023/09/29 06:07:39;;;;;;;11.95;4.18;;;;;;;16.84;100.00;101135.03;6214537;23;20032;-70
2023/09/29 06:10:08;;;;;;;8.13;3.60;;;;;;;16.84;100.00;101135.91;6242284;23;20338;-71
2023/09/29 06:12:33;;;;;;;11.00;3.58;;;;;;;16.86;100.00;101154.75;6243874;23;20014;-70
2023/09/29 06:15:12;;;;;;;10.38;3.63;;;;;;;16.88;100.00;101158.19;6217257;23;20404;-70
2023/09/29 06:17:40;;;;;;;12.40;3.92;;;;;;;16.90;100.00;101158.94;6216560;23;20023;-70
2023/09/29 06:20:09;;;;;;;10.68;3.80;;;;;;;16.93;100.00;101150.47;6215571;23;20016;-72
2023/09/29 06:22:34;;;;;;;13.20;4.00;;;;;;;16.97;100.00;101146.47;6244527;23;20016;-71
2023/09/29 06:25:00;;;;;;;12.13;3.78;;;;;;;16.98;100.00;101147.31;6217487;23;20004;-70
2023/09/29 06:27:26;;;;;;;11.80;3.97;;;;;;;17.00;100.00;101139.88;6216501;23;20499;-71
2023/09/29 06:29:52;;;;;;;12.57;3.80;;;;;;;17.01;100.00;101137.00;6217350;23;20350;-70
2023/09/29 06:32:17;;;;;;;12.85;4.10;;;;;;;17.04;100.00;101141.28;6244350;23;19996;-70
2023/09/29 06:34:43;;;;;;;11.93;3.92;;;;;;;17.04;100.00;101139.47;6244647;23;20371;-73
2023/09/29 06:37:09;;;;;;;13.55;3.90;;;;;;;17.06;100.00;101158.31;6217376;23;20019;-73
2023/09/29 06:39:35;;;;;;;18.40;4.13;;;;;;;17.07;100.00;101150.03;6217310;23;20074;-74
2023/09/29 06:42:00;;;;;;;12.07;4.00;;;;;;;17.07;100.00;101143.72;6243480;23;20004;-73
2023/09/29 06:44:26;;;;;;;14.20;4.00;;;;;;;17.09;100.00;101158.84;6244319;23;20095;-71
2023/09/29 06:46:51;;;;;;;11.75;3.80;;;;;;;17.09;100.00;101161.56;6217187;23;20028;-72
2023/09/29 06:49:17;;;;;;;10.10;3.97;;;;;;;17.10;100.00;101163.28;6244187;23;20004;-71
2023/09/29 06:51:42;;;;;;;13.93;4.05;;;;;;;17.13;100.00;101162.16;6243981;23;20307;-71
2023/09/29 06:54:08;;;;;;;12.38;4.38;;;;;;;17.15;100.00;101160.13;6250464;23;20007;-74
2023/09/29 06:56:33;;;;;;;11.65;3.70;;;;;;;17.18;100.00;101169.84;6243233;23;20020;-75
2023/09/29 06:58:59;;;;;;;11.07;3.70;;;;;;;17.18;100.00;101159.00;6216089;23;20031;-74
2023/09/29 07:01:27;;;;;;;14.88;4.10;;;;;;;17.21;100.00;101158.69;6243546;23;20054;-74
2023/09/29 07:03:53;;;;;;;15.20;4.35;;;;;;;17.21;100.00;101170.41;6243170;23;20004;-75
2023/09/29 07:06:22;;;;;;;14.07;3.85;;;;;;;17.23;100.00;101167.53;6215920;23;20070;-72
2023/09/29 07:08:48;;;;;;;11.85;3.80;;;;;;;17.27;100.00;101169.78;6216911;23;20004;-74
2023/09/29 07:11:13;;;;;;;17.73;3.97;;;;;;;17.29;100.00;101172.38;6216593;23;20087;-72
2023/09/29 07:13:38;;;;;;;11.00;3.67;;;;;;;17.30;100.00;101171.38;6253509;23;20461;-68
2023/09/29 07:16:04;;;;;;;12.93;4.07;;;;;;;17.31;100.00;101164.94;6245567;23;20007;-73
2023/09/29 07:18:29;;;;;;;14.15;4.40;;;;;;;17.34;100.00;101164.63;6243916;23;20004;-72
2023/09/29 07:20:57;;;;;;;10.90;3.90;;;;;;;17.36;100.00;101168.03;6243901;23;20001;-73
2023/09/29 07:23:26;;;;;;;11.75;3.92;;;;;;;17.39;100.00;101162.31;6216843;23;20008;-73
2023/09/29 07:25:52;;;;;;;12.73;3.70;;;;;;;17.41;100.00;101173.91;6244439;23;20436;-74
2023/09/29 07:28:18;;;;;;;9.20;3.70;;;;;;;17.43;100.00;101174.59;6216629;23;20000;-74
2023/09/29 07:30:44;;;;;;;13.65;4.30;;;;;;;17.46;100.00;101182.44;6216639;23;20001;-74
2023/09/29 07:33:10;;;;;;;8.38;3.47;;;;;;;17.50;100.00;101179.44;6243653;23;20011;-74
2023/09/29 07:35:36;;;;;;;13.63;4.15;;;;;;;17.51;100.00;101182.03;6243216;23;20432;-73
2023/09/29 07:38:02;;;;;;;11.73;4.13;;;;;;;17.57;100.00;101175.09;6216579;23;20438;-73
2023/09/29 07:40:28;;;;;;;16.45;4.15;;;;;;;17.59;100.00;101182.13;6216697;23;20099;-72
2023/09/29 07:42:53;;;;;;;15.63;4.35;;;;;;;17.64;100.00;101173.50;6241869;23;20040;-72
2023/09/29 07:45:20;;;;;;;14.95;4.15;;;;;;;17.69;100.00;101178.47;6241882;23;20004;-73
2023/09/29 07:47:45;;;;;;;13.23;4.25;;;;;;;17.71;100.00;101182.75;6215189;23;20014;-72
2023/09/29 07:50:11;;;;;;;12.65;4.20;;;;;;;17.79;100.00;101190.19;6214832;23;20114;-72
2023/09/29 07:52:38;;;;;;;12.50;4.20;;;;;;;17.84;100.00;101189.72;6214832;23;20004;-72
2023/09/29 07:55:09;;;;;;;10.13;3.72;;;;;;;17.90;100.00;101191.88;6241907;23;20007;-72
2023/09/29 07:57:35;;;;;;;11.30;4.00;;;;;;;17.94;100.00;101187.84;6242892;23;20430;-72
2023/09/29 08:00:01;;;;;;;14.73;3.90;;;;;;;18.01;100.00;101180.78;6215215;23;20022;-72
2023/09/29 08:02:27;;;;;;;10.70;3.90;;;;;;;18.05;100.00;101190.31;6215181;23;20082;-73
2023/09/29 08:04:52;;;;;;;11.75;3.95;;;;;;;18.08;100.00;101195.47;6242541;23;20083;-71
2023/09/29 08:07:18;;;;;;;12.98;3.65;;;;;;;18.11;100.00;101195.16;6240013;23;20403;-70
2023/09/29 08:09:44;;;;;;;11.45;3.53;;;;;;;18.19;100.00;101201.72;6241430;23;20010;-70
2023/09/29 08:12:09;;;;;;;9.05;4.00;;;;;;;18.23;100.00;101206.69;6241808;23;19997;-71
2023/09/29 08:14:34;;;;;;;10.70;3.78;;;;;;;18.26;100.00;101208.22;6241013;23;20004;-70
2023/09/29 08:17:00;;;;;;;10.70;3.53;;;;;;;18.29;100.00;101213.38;6241516;23;20451;-70
2023/09/29 08:19:25;;;;;;;13.20;3.97;;;;;;;18.34;100.00;101221.91;6242115;23;20034;-70
2023/09/29 08:21:53;;;;;;;9.00;3.22;;;;;;;18.37;100.00;101223.47;6241795;23;20074;-72
2023/09/29 08:24:19;;;;;;;11.90;4.10;;;;;;;18.39;100.00;101224.16;6241098;23;20011;-70
2023/09/29 08:26:44;;;;;;;14.02;4.20;;;;;;;18.44;100.00;101230.88;6242010;23;20007;-71
2023/09/29 08:29:14;;;;;;;11.10;3.88;;;;;;;18.47;100.00;101236.00;6242003;23;20333;-70
2023/09/29 08:31:39;;;;;;;15.63;4.03;;;;;;;18.51;100.00;101229.25;6241802;23;20106;-70
2023/09/29 08:34:05;;;;;;;9.10;3.65;;;;;;;18.54;100.00;101238.09;6214760;23;20038;-70
2023/09/29 08:36:30;;;;;;;15.18;4.80;;;;;;;18.54;100.00;101238.97;6241808;23;20303;-70
2023/09/29 08:38:55;;;;;;;13.38;3.85;;;;;;;18.58;100.00;101244.94;6214074;23;20008;-70
2023/09/29 08:41:25;;;;;;;11.18;3.78;;;;;;;18.61;100.00;101242.78;6241404;23;20000;-69
2023/09/29 08:43:51;;;;;;;16.48;4.72;;;;;;;18.63;100.00;101253.50;6214807;23;20016;-70
2023/09/29 08:46:19;;;;;;;10.45;3.45;;;;;;;18.65;100.00;101254.19;6241992;23;20000;-70
2023/09/29 08:48:52;;;;;;;14.27;4.97;;;;;;;18.69;100.00;101247.44;5074880;28;20410;-71
2023/09/29 08:51:19;;;;;;;12.88;4.15;;;;;;;18.70;100.00;101257.31;5077991;28;20036;-71
2023/09/29 08:53:45;;;;;;;15.73;4.20;;;;;;;18.74;100.00;101258.72;5077070;28;20078;-70
2023/09/29 08:56:12;;;;;;;13.93;4.22;;;;;;;18.73;100.00;101267.91;5078298;28;20033;-70
2023/09/29 08:58:38;;;;;;;13.40;4.25;;;;;;;18.76;100.00;101259.41;5080068;28;20024;-70
2023/09/29 09:01:05;;;;;;;12.60;4.43;;;;;;;18.83;100.00;101256.94;5076533;28;20114;-72
2023/09/29 09:03:30;;;;;;;10.77;3.75;;;;;;;18.83;100.00;101255.06;5073344;28;20464;-71
2023/09/29 09:05:56;;;;;;;13.15;4.10;;;;;;;18.88;100.00;101261.94;5073434;28;20038;-70
2023/09/29 09:08:26;;;;;;;11.82;3.67;;;;;;;18.89;100.00;101255.47;5074557;28;20096;-71
2023/09/29 09:11:00;;;;;;;13.20;4.05;;;;;;;18.92;100.00;101266.91;5065310;28;20151;-72
2023/09/29 09:13:27;;;;;;;11.05;3.50;;;;;;;18.94;100.00;101269.47;5081706;28;20059;-72
2023/09/29 09:16:00;;;;;;;13.27;4.53;;;;;;;18.93;100.00;101265.91;5068976;28;20353;-70
2023/09/29 09:18:28;;;;;;;9.32;3.60;;;;;;;18.93;100.00;101278.66;5076141;28;20416;-71
2023/09/29 09:20:55;;;;;;;12.38;3.90;;;;;;;18.92;100.00;101275.09;5071693;28;20040;-71
2023/09/29 09:23:20;;;;;;;11.40;3.97;;;;;;;18.92;100.00;101275.09;5074161;28;20494;-71
2023/09/29 09:25:46;;;;;;;12.48;4.32;;;;;;;18.93;100.00;101275.94;5074921;28;20024;-71
2023/09/29 09:28:16;;;;;;;13.52;4.80;;;;;;;18.94;100.00;101289.38;5077679;28;20021;-70
2023/09/29 09:30:42;;;;;;;16.60;3.97;;;;;;;18.95;100.00;101287.53;5068105;28;20166;-70
2023/09/29 09:33:16;;;;;;;18.13;4.47;;;;;;;18.96;100.00;101290.09;5068786;28;20039;-71
2023/09/29 09:35:42;;;;;;;14.98;4.65;;;;;;;18.98;100.00;101287.22;5080918;28;20028;-71
2023/09/29 09:38:08;;;;;;;12.20;4.05;;;;;;;18.98;100.00;101284.50;5077219;28;20054;-72
2023/09/29 09:40:34;;;;;;;10.95;3.83;;;;;;;18.98;100.00;101288.06;5071779;28;20033;-70
2023/09/29 09:43:04;;;;;;;11.18;3.67;;;;;;;19.01;100.00;101292.34;5070787;28;20021;-71
2023/09/29 09:45:39;;;;;;;11.68;3.65;;;;;;;19.01;100.00;101295.91;5072206;28;20118;-71
2023/09/29 09:48:06;;;;;;;17.67;4.38;;;;;;;19.01;100.00;101295.91;5074902;28;20041;-71
2023/09/29 09:50:33;;;;;;;13.65;4.28;;;;;;;19.02;100.00;101307.69;5075861;28;20032;-70
2023/09/29 09:53:02;;;;;;;12.32;3.90;;;;;;;19.03;100.00;101304.81;5066928;28;20052;-71
2023/09/29 09:55:39;;;;;;;15.77;4.05;;;;;;;19.04;100.00;101308.38;5077617;28;20105;-70
2023/09/29 09:58:13;;;;;;;12.93;3.95;;;;;;;19.06;100.00;101308.22;5065760;28;20021;-72
2023/09/29 10:00:42;;;;;;;10.80;3.65;;;;;;;19.07;100.00;101313.50;5063530;28;20028;-70
2023/09/29 10:03:11;;;;;;;14.85;4.85;;;;;;;19.07;100.00;101315.38;5059689;28;20398;-71
2023/09/29 10:05:40;;;;;;;11.77;3.90;;;;;;;19.06;100.00;101328.13;5063995;28;20026;-71
2023/09/29 10:08:07;;;;;;;14.90;4.53;;;;;;;19.07;100.00;101332.59;5063366;28;20032;-72
2023/09/29 10:10:40;;;;;;;14.35;4.13;;;;;;;19.07;100.00;101326.28;5056482;28;20022;-71
2023/09/29 10:13:11;;;;;;;13.00;3.90;;;;;;;19.08;100.00;101328.84;5052650;28;20385;-71
2023/09/29 10:15:37;;;;;;;11.90;3.80;;;;;;;19.07;100.00;101332.59;5039858;28;20033;-70
2023/09/29 10:18:19;;;;;;;12.73;4.13;;;;;;;19.07;100.00;101329.84;5062780;28;20090;-71
2023/09/29 10:21:00;;;;;;;11.38;3.97;;;;;;;19.04;100.00;101332.91;5056648;28;20033;-71
2023/09/29 10:23:26;;;;;;;17.67;4.60;;;;;;;19.04;100.00;101332.91;5060396;28;20393;-71
2023/09/29 10:25:59;;;;;;;16.83;4.90;;;;;;;19.03;100.00;101325.72;5062436;28;20055;-72
2023/09/29 10:28:34;;;;;;;14.68;4.63;;;;;;;19.05;100.00;101329.16;5070144;28;20033;-71
2023/09/29 10:31:12;;;;;;;15.43;5.03;;;;;;;19.07;100.00;101335.31;5052411;28;20112;-71
2023/09/29 10:33:55;;;;;;;13.95;3.75;;;;;;;19.08;100.00;101339.75;5046450;28;20400;-70
2023/09/29 10:36:25;;;;;;;12.57;3.97;;;;;;;19.09;100.00;101333.25;5058875;28;20025;-71
2023/09/29 10:38:53;;;;;;;18.05;4.75;;;;;;;19.11;100.00;101339.44;5060254;28;20032;-71
2023/09/29 10:41:19;;;;;;;14.50;4.88;;;;;;;19.12;100.00;101345.72;5060002;28;20031;-71
2023/09/29 10:43:48;;;;;;;12.63;3.90;;;;;;;19.13;100.00;101351.03;5060166;28;20037;-71
2023/09/29 10:46:16;;;;;;;;;;;;;;;19.15;100.00;101351.75;5057478;28;20028;-71
2023/09/29 10:48:49;;;;;;;13.40;4.10;;;;;;;19.14;100.00;101354.63;5055357;28;19944;-71
2023/09/29 10:51:22;;;;;;;10.63;3.80;;;;;;;19.12;100.00;101357.50;5060175;28;20108;-70
2023/09/29 10:53:48;;;;;;;18.02;4.13;;;;;;;19.12;100.00;101349.34;5058346;28;20025;-71
2023/09/29 10:56:18;;;;;;;13.27;3.92;;;;;;;19.13;100.00;101358.34;5057625;28;21414;-71
2023/09/29 10:58:44;;;;;;;14.05;4.25;;;;;;;19.12;100.00;101365.69;5057237;28;20017;-71
2023/09/29 11:01:11;;;;;;;11.32;4.03;;;;;;;19.12;100.00;101368.41;5062752;28;20051;-71
2023/09/29 11:03:36;;;;;;;13.07;3.92;;;;;;;19.14;100.00;101371.81;5057911;28;20377;-71
2023/09/29 11:06:08;;;;;;;13.00;4.07;;;;;;;19.19;100.00;101368.63;5057826;28;20079;-71
2023/09/29 11:08:38;;;;;;;13.90;4.15;;;;;;;19.21;100.00;101370.19;5049733;28;20438;-71